Time;durP1;ratioP1;P1;durP2;ratioP2;P2;SDS_P1;SDS_P2;PMS_P1;PMS_P2;Temp;Humidity;BMP_temperature;BMP_pressure;BME280_temperature;BME280_humidity;BME280_pressure;Samples;Min_cycle;Max_cycle;Signal;HPM_P1;HPM_P2
2022/01/19 00:00:38;;;;;;;8.30;4.15;;;;;;;;;;5129455;27;20059;-64
2022/01/19 00:03:04;;;;;;;8.00;4.55;;;;;;;;;;5093046;28;20059;-64
2022/01/19 00:05:30;;;;;;;9.85;5.05;;;;;;;;;;5095259;28;20808;-64
2022/01/19 00:07:56;;;;;;;8.38;4.78;;;;;;;;;;5096030;28;20054;-64
2022/01/19 00:10:27;;;;;;;9.40;4.63;;;;;;;;;;5095284;28;20043;-64
2022/01/19 00:12:55;;;;;;;8.60;4.78;;;;;;;;;;5095052;27;20754;-64
2022/01/19 00:15:22;;;;;;;10.43;5.05;;;;;;;;;;5098557;27;20710;-64
2022/01/19 00:17:48;;;;;;;8.50;4.43;;;;;;;;;;5117416;27;20588;-64
2022/01/19 00:20:14;;;;;;;10.07;5.03;;;;;;;;;;5115521;27;20043;-64
2022/01/19 00:22:40;;;;;;;9.32;4.80;;;;;;;;;;5082928;28;20072;-64
2022/01/19 00:25:07;;;;;;;10.98;5.60;;;;;;;;;;5093039;27;20078;-64
2022/01/19 00:27:33;;;;;;;9.63;5.75;;;;;;;;;;5106853;27;20624;-64
2022/01/19 00:29:59;;;;;;;9.80;5.03;;;;;;;;;;5109794;27;20043;-64
2022/01/19 00:32:26;;;;;;;8.75;4.50;;;;;;;;;;5108346;27;20066;-64
2022/01/19 00:34:52;;;;;;;10.25;4.72;;;;;;;;;;5092850;27;20607;-64
2022/01/19 00:37:18;;;;;;;10.60;5.65;;;;;;;;;;5108734;27;20385;-64
2022/01/19 00:39:44;;;;;;;9.27;4.90;;;;;;;;;;5110428;27;20042;-64
2022/01/19 00:42:10;;;;;;;8.98;4.82;;;;;;;;;;5109928;27;20384;-65
2022/01/19 00:44:38;;;;;;;10.85;5.78;;;;;;;;;;5109874;27;20054;-64
2022/01/19 00:47:04;;;;;;;10.65;4.90;;;;;;;;;;5108515;27;20046;-64
2022/01/19 00:49:30;;;;;;;9.98;4.75;;;;;;;;;;5110368;27;20070;-64
2022/01/19 00:51:56;;;;;;;8.85;4.85;;;;;;;;;;5126556;27;20509;-64
2022/01/19 00:54:22;;;;;;;9.25;4.85;;;;;;;;;;5110276;27;20083;-64
2022/01/19 00:56:48;;;;;;;10.65;5.40;;;;;;;;;;5127501;27;20472;-64
2022/01/19 00:59:14;;;;;;;9.90;5.15;;;;;;;;;;5128334;27;20027;-64
2022/01/19 01:01:40;;;;;;;9.27;4.50;;;;;;;;;;5109440;27;20411;-64
2022/01/19 01:04:06;;;;;;;10.38;5.68;;;;;;;;;;5092206;27;20061;-64
2022/01/19 01:06:32;;;;;;;10.82;5.00;;;;;;;;;;5109611;27;20706;-64
2022/01/19 01:08:58;;;;;;;9.45;4.38;;;;;;;;;;5127088;27;20043;-64
2022/01/19 01:11:32;;;;;;;10.02;4.90;;;;;;;;;;5109499;27;20099;-64
2022/01/19 01:16:40;;;;;;;10.13;5.18;;;;;;;;;;5109302;27;20053;-64
2022/01/19 01:19:11;;;;;;;9.60;4.97;;;;;;;;;;5108912;27;20043;-64
2022/01/19 01:21:37;;;;;;;11.52;6.28;;;;;;;;;;5108482;27;20150;-64
2022/01/19 01:24:03;;;;;;;8.88;4.72;;;;;;;;;;5089155;28;20089;-64
2022/01/19 01:26:30;;;;;;;10.05;4.90;;;;;;;;;;5088738;28;20660;-64
2022/01/19 01:28:56;;;;;;;10.70;5.07;;;;;;;;;;5089565;27;20039;-64
2022/01/19 01:31:22;;;;;;;8.60;4.65;;;;;;;;;;5092095;27;20569;-64
2022/01/19 01:33:48;;;;;;;10.85;4.60;;;;;;;;;;5108118;27;20035;-64
2022/01/19 01:36:15;;;;;;;9.93;5.00;;;;;;;;;;5109045;27;20131;-64
2022/01/19 01:38:41;;;;;;;12.52;5.53;;;;;;;;;;5108474;27;20051;-64
2022/01/19 01:41:09;;;;;;;12.70;6.13;;;;;;;;;;5109143;27;20178;-64
2022/01/19 01:43:35;;;;;;;11.40;6.03;;;;;;;;;;5107813;27;20096;-64
2022/01/19 01:46:05;;;;;;;9.93;4.70;;;;;;;;;;5108735;27;20039;-64
2022/01/19 01:48:31;;;;;;;10.57;5.38;;;;;;;;;;5091448;27;20130;-64
2022/01/19 01:53:42;;;;;;;;;;;;;;;;;;5108080;27;20504;-64
2022/01/19 01:56:10;;;;;;;11.68;5.38;;;;;;;;;;5127468;27;19922;-64
2022/01/19 01:58:40;;;;;;;11.88;6.32;;;;;;;;;;5108279;27;20057;-64
2022/01/19 02:01:07;;;;;;;11.25;5.97;;;;;;;;;;5106401;27;20127;-64
2022/01/19 02:03:38;;;;;;;10.93;4.88;;;;;;;;;;5074852;27;20043;-64
2022/01/19 02:08:49;;;;;;;11.80;5.28;;;;;;;;;;5102881;27;20075;-64
2022/01/19 02:16:44;;;;;;;11.90;5.57;;;;;;;;;;5107306;27;20047;-64
2022/01/19 02:22:03;;;;;;;12.07;5.18;;;;;;;;;;5106569;27;20337;-64
2022/01/19 02:24:42;;;;;;;14.70;5.18;;;;;;;;;;5108436;27;20674;-64
2022/01/19 02:28:59;;;;;;;11.50;4.75;;;;;;;;;;5107015;27;20040;-64
2022/01/19 02:40:59;;;;;;;11.40;5.38;;;;;;;;;;5121478;27;20047;-64
2022/01/19 02:43:28;;;;;;;11.80;5.97;;;;;;;;;;5100707;27;20081;-64
2022/01/19 02:51:24;;;;;;;13.32;5.85;;;;;;;;;;5107081;27;20039;-64
2022/01/19 02:53:50;;;;;;;11.65;6.07;;;;;;;;;;5106307;27;20041;-64
2022/01/19 02:56:30;;;;;;;14.48;5.82;;;;;;;;;;5106611;27;20043;-64
2022/01/19 02:59:05;;;;;;;11.15;5.63;;;;;;;;;;5106385;27;20047;-64
2022/01/19 03:09:26;;;;;;;11.70;5.60;;;;;;;;;;5107790;27;20088;-64
2022/01/19 03:11:52;;;;;;;11.30;5.18;;;;;;;;;;5077757;27;20075;-64
2022/01/19 03:14:19;;;;;;;14.05;5.75;;;;;;;;;;5071290;27;20078;-64
2022/01/19 03:16:46;;;;;;;10.25;5.28;;;;;;;;;;5084688;28;20072;-64
2022/01/19 03:19:12;;;;;;;12.13;5.55;;;;;;;;;;5087359;27;20050;-64
2022/01/19 03:21:39;;;;;;;12.57;5.60;;;;;;;;;;5082692;27;20115;-64
2022/01/19 03:24:05;;;;;;;12.85;5.40;;;;;;;;;;5105963;27;20083;-64
2022/01/19 03:26:31;;;;;;;13.20;5.82;;;;;;;;;;5106732;27;20071;-64
2022/01/19 03:28:58;;;;;;;11.20;5.47;;;;;;;;;;5089673;27;20079;-65
2022/01/19 03:31:24;;;;;;;11.98;5.63;;;;;;;;;;5105973;27;20098;-65
2022/01/19 03:33:50;;;;;;;12.55;5.40;;;;;;;;;;5105920;27;20043;-64
2022/01/19 03:36:17;;;;;;;13.27;5.45;;;;;;;;;;5089142;27;20046;-64
2022/01/19 03:38:43;;;;;;;12.13;6.07;;;;;;;;;;5105547;27;20058;-64
2022/01/19 03:41:09;;;;;;;11.45;5.40;;;;;;;;;;5106935;27;20043;-64
2022/01/19 03:43:35;;;;;;;12.10;6.13;;;;;;;;;;5088724;28;20042;-64
2022/01/19 03:46:04;;;;;;;12.00;6.00;;;;;;;;;;5106077;28;20043;-64
2022/01/19 03:48:42;;;;;;;13.15;6.25;;;;;;;;;;5106284;27;20577;-64
2022/01/19 03:51:08;;;;;;;10.70;5.97;;;;;;;;;;5106237;28;20039;-64
2022/01/19 03:53:34;;;;;;;13.50;6.20;;;;;;;;;;5089340;28;20092;-64
2022/01/19 03:56:01;;;;;;;11.30;5.47;;;;;;;;;;5090114;28;20065;-64
2022/01/19 03:58:27;;;;;;;12.10;5.40;;;;;;;;;;5105372;28;20415;-64
2022/01/19 04:00:55;;;;;;;11.63;6.07;;;;;;;;;;5106720;28;20039;-64
2022/01/19 04:03:28;;;;;;;12.45;6.30;;;;;;;;;;5089137;28;20043;-64
2022/01/19 04:06:04;;;;;;;12.57;5.57;;;;;;;;;;5106389;28;20047;-64
2022/01/19 04:08:30;;;;;;;12.73;6.43;;;;;;;;;;5105756;28;20297;-64
2022/01/19 04:10:56;;;;;;;11.77;5.32;;;;;;;;;;5106706;27;20050;-64
2022/01/19 04:13:30;;;;;;;11.13;5.15;;;;;;;;;;5105801;28;20074;-64
2022/01/19 04:15:56;;;;;;;11.47;5.73;;;;;;;;;;5105864;28;20043;-65
2022/01/19 04:18:22;;;;;;;13.50;5.80;;;;;;;;;;5105371;28;20047;-64
2022/01/19 04:20:50;;;;;;;12.65;5.43;;;;;;;;;;5105321;28;20054;-64
2022/01/19 04:23:21;;;;;;;12.43;5.85;;;;;;;;;;5088439;28;20146;-64
2022/01/19 04:25:47;;;;;;;11.18;5.72;;;;;;;;;;5106415;28;20583;-65
2022/01/19 04:28:14;;;;;;;12.80;6.80;;;;;;;;;;5104885;28;20365;-65
2022/01/19 04:30:41;;;;;;;10.77;5.50;;;;;;;;;;5089109;28;20035;-64
2022/01/19 04:33:11;;;;;;;11.75;5.72;;;;;;;;;;5088479;28;20092;-64
2022/01/19 04:36:19;;;;;;;11.55;5.30;;;;;;;;;;5106379;28;20054;-64
2022/01/19 04:39:16;;;;;;;12.38;5.72;;;;;;;;;;5104732;28;20054;-64
2022/01/19 05:07:54;;;;;;;10.20;5.65;;;;;;;;;;5107933;27;20039;-64
2022/01/19 05:13:26;;;;;;;;;;;;;;;;;;5104350;27;20039;-64
2022/01/19 05:15:52;;;;;;;11.30;5.72;;;;;;;;;;5143386;27;19915;-64
2022/01/19 05:18:18;;;;;;;13.23;6.05;;;;;;;;;;5091863;27;20047;-64
2022/01/19 05:20:45;;;;;;;10.93;5.60;;;;;;;;;;5109422;27;20051;-64
2022/01/19 05:23:12;;;;;;;11.65;6.75;;;;;;;;;;5108746;27;20055;-64
2022/01/19 05:25:38;;;;;;;13.23;5.82;;;;;;;;;;5091931;27;20529;-64
2022/01/19 05:28:05;;;;;;;10.85;5.47;;;;;;;;;;5107401;27;20046;-64
2022/01/19 05:30:31;;;;;;;12.10;5.43;;;;;;;;;;5092234;27;20045;-64
2022/01/19 05:32:57;;;;;;;10.52;5.65;;;;;;;;;;5108226;27;20419;-64
2022/01/19 05:35:24;;;;;;;11.13;5.82;;;;;;;;;;5108575;27;20126;-64
2022/01/19 05:37:50;;;;;;;10.32;5.22;;;;;;;;;;5107728;27;20050;-64
2022/01/19 05:40:17;;;;;;;12.05;5.97;;;;;;;;;;5109359;27;20043;-64
2022/01/19 05:42:43;;;;;;;13.57;6.75;;;;;;;;;;5108261;27;20046;-64
2022/01/19 05:45:09;;;;;;;10.32;5.82;;;;;;;;;;5092643;27;20044;-64
2022/01/19 05:47:35;;;;;;;10.18;5.47;;;;;;;;;;5108060;27;20775;-64
2022/01/19 05:50:01;;;;;;;12.75;5.60;;;;;;;;;;5109027;27;20063;-64
2022/01/19 05:52:27;;;;;;;10.90;5.75;;;;;;;;;;5090999;27;20039;-64
2022/01/19 05:54:53;;;;;;;10.70;5.53;;;;;;;;;;5109185;27;20058;-64
2022/01/19 05:57:19;;;;;;;10.50;5.10;;;;;;;;;;5107396;27;20039;-64
2022/01/19 05:59:46;;;;;;;10.82;5.78;;;;;;;;;;5108611;27;20694;-64
2022/01/19 06:02:12;;;;;;;10.43;5.55;;;;;;;;;;5106596;27;20054;-65
2022/01/19 06:04:38;;;;;;;10.60;5.40;;;;;;;;;;5108237;27;20043;-64
2022/01/19 06:07:04;;;;;;;11.05;5.80;;;;;;;;;;5107054;27;20125;-64
2022/01/19 06:12:07;;;;;;;10.90;5.10;;;;;;;;;;5107194;27;20040;-64
2022/01/19 06:14:34;;;;;;;9.85;5.35;;;;;;;;;;5108455;27;20047;-65
2022/01/19 06:17:01;;;;;;;9.55;4.85;;;;;;;;;;5106933;27;20046;-64
2022/01/19 06:19:27;;;;;;;10.80;5.95;;;;;;;;;;5091102;27;20039;-64
2022/01/19 06:21:53;;;;;;;11.10;5.78;;;;;;;;;;5106214;27;20055;-64
2022/01/19 06:24:19;;;;;;;12.00;5.57;;;;;;;;;;5107276;27;20051;-65
2022/01/19 06:26:45;;;;;;;10.73;5.60;;;;;;;;;;5106467;27;20576;-64
2022/01/19 06:29:11;;;;;;;11.45;6.10;;;;;;;;;;5107245;27;20046;-64
2022/01/19 06:31:37;;;;;;;8.95;5.40;;;;;;;;;;5107175;27;20523;-65
2022/01/19 06:34:03;;;;;;;9.43;5.22;;;;;;;;;;5106627;27;20051;-66
2022/01/19 06:36:30;;;;;;;10.23;6.18;;;;;;;;;;5067085;27;20055;-66
2022/01/19 06:38:56;;;;;;;11.32;5.90;;;;;;;;;;5090959;27;21786;-66
2022/01/19 06:41:22;;;;;;;10.07;5.25;;;;;;;;;;5090843;27;20039;-66
2022/01/19 06:43:48;;;;;;;9.85;5.45;;;;;;;;;;5078810;28;20039;-66
2022/01/19 06:46:14;;;;;;;11.38;5.93;;;;;;;;;;5098607;27;20050;-66
2022/01/19 06:48:40;;;;;;;10.15;5.28;;;;;;;;;;5106180;27;20035;-66
2022/01/19 06:51:06;;;;;;;9.73;5.32;;;;;;;;;;5107063;27;20087;-64
2022/01/19 06:53:32;;;;;;;10.55;6.13;;;;;;;;;;5075727;27;20042;-64
2022/01/19 06:55:58;;;;;;;10.68;6.40;;;;;;;;;;5078020;27;20046;-65
2022/01/19 06:58:24;;;;;;;11.13;6.10;;;;;;;;;;5076728;27;20044;-65
2022/01/19 07:00:51;;;;;;;9.98;5.60;;;;;;;;;;5115228;27;20766;-65
2022/01/19 07:03:17;;;;;;;11.13;5.60;;;;;;;;;;5078884;28;20036;-66
2022/01/19 07:05:43;;;;;;;9.68;5.35;;;;;;;;;;5099413;28;20047;-66
2022/01/19 07:08:09;;;;;;;11.55;5.55;;;;;;;;;;5094402;27;20031;-66
2022/01/19 07:10:35;;;;;;;9.77;5.68;;;;;;;;;;5087290;28;20119;-65
2022/01/19 07:13:02;;;;;;;11.45;6.15;;;;;;;;;;5096002;27;20035;-66
2022/01/19 07:15:28;;;;;;;12.50;6.28;;;;;;;;;;5106950;27;20073;-66
2022/01/19 07:17:54;;;;;;;13.27;6.65;;;;;;;;;;5089044;27;20122;-65
2022/01/19 07:20:20;;;;;;;10.27;5.95;;;;;;;;;;5125019;27;20609;-66
2022/01/19 07:22:48;;;;;;;9.57;5.82;;;;;;;;;;5082452;27;20131;-65
2022/01/19 07:25:14;;;;;;;12.07;6.47;;;;;;;;;;5075580;27;20050;-66
2022/01/19 07:27:40;;;;;;;14.90;6.63;;;;;;;;;;5082021;27;20031;-65
2022/01/19 07:30:07;;;;;;;13.27;7.03;;;;;;;;;;5102809;27;20027;-66
2022/01/19 07:32:34;;;;;;;15.63;8.45;;;;;;;;;;5102124;27;20562;-66
2022/01/19 07:35:01;;;;;;;13.65;7.50;;;;;;;;;;5106347;27;20047;-66
2022/01/19 07:37:27;;;;;;;12.02;6.90;;;;;;;;;;5105675;27;20039;-64
2022/01/19 07:39:53;;;;;;;14.70;6.55;;;;;;;;;;5076041;27;21794;-64
2022/01/19 07:42:19;;;;;;;12.20;6.65;;;;;;;;;;5082562;27;20053;-63
2022/01/19 07:44:46;;;;;;;14.32;6.95;;;;;;;;;;5077293;28;20520;-63
2022/01/19 07:47:12;;;;;;;13.32;7.35;;;;;;;;;;5093312;27;20039;-64
2022/01/19 07:49:38;;;;;;;11.20;6.93;;;;;;;;;;5106582;27;20070;-64
2022/01/19 07:52:04;;;;;;;13.73;7.43;;;;;;;;;;5085077;28;20047;-64
2022/01/19 07:54:30;;;;;;;12.77;7.47;;;;;;;;;;5106807;27;20039;-65
2022/01/19 07:56:56;;;;;;;10.80;6.85;;;;;;;;;;5105305;27;20043;-65
2022/01/19 07:59:22;;;;;;;16.30;7.40;;;;;;;;;;5108365;28;20701;-65
2022/01/19 08:01:48;;;;;;;11.15;6.63;;;;;;;;;;5097226;28;20051;-65
2022/01/19 08:04:14;;;;;;;12.52;7.15;;;;;;;;;;5124396;27;20444;-64
2022/01/19 08:06:40;;;;;;;11.98;6.63;;;;;;;;;;5124657;28;20046;-64
2022/01/19 08:09:07;;;;;;;13.02;7.40;;;;;;;;;;5105367;28;20039;-66
2022/01/19 08:11:33;;;;;;;12.25;6.85;;;;;;;;;;5092306;28;20044;-65
2022/01/19 08:14:00;;;;;;;12.05;7.30;;;;;;;;;;5092324;28;20091;-64
2022/01/19 08:16:26;;;;;;;12.98;7.28;;;;;;;;;;5105569;28;20054;-66
2022/01/19 08:18:52;;;;;;;10.98;6.60;;;;;;;;;;5061992;28;20493;-64
2022/01/19 08:21:18;;;;;;;14.73;7.28;;;;;;;;;;5115797;28;20035;-66
2022/01/19 08:23:44;;;;;;;12.88;6.90;;;;;;;;;;5102229;28;20704;-65
2022/01/19 08:26:15;;;;;;;11.30;7.00;;;;;;;;;;5106448;28;20118;-66
2022/01/19 08:28:41;;;;;;;15.70;7.82;;;;;;;;;;5101680;28;20070;-65
2022/01/19 08:31:07;;;;;;;12.38;7.80;;;;;;;;;;5124513;28;20039;-64
2022/01/19 08:33:33;;;;;;;12.75;7.32;;;;;;;;;;5106434;27;20038;-64
2022/01/19 08:35:59;;;;;;;10.73;6.75;;;;;;;;;;5109632;27;20084;-65
2022/01/19 08:38:25;;;;;;;12.18;6.90;;;;;;;;;;5093215;27;20113;-67
2022/01/19 08:40:51;;;;;;;11.98;6.95;;;;;;;;;;5110075;27;20039;-65
2022/01/19 08:43:17;;;;;;;14.00;7.13;;;;;;;;;;5109201;27;20503;-65
2022/01/19 08:45:43;;;;;;;13.77;7.30;;;;;;;;;;5128447;27;20039;-66
2022/01/19 08:48:09;;;;;;;12.40;7.75;;;;;;;;;;5109419;27;20070;-66
2022/01/19 08:50:35;;;;;;;12.63;6.63;;;;;;;;;;5109777;27;20412;-67
2022/01/19 08:53:02;;;;;;;14.18;7.25;;;;;;;;;;5109570;27;20400;-66
2022/01/19 08:55:28;;;;;;;11.40;6.68;;;;;;;;;;5110126;27;20048;-65
2022/01/19 08:57:54;;;;;;;12.18;6.93;;;;;;;;;;5108986;27;20103;-65
2022/01/19 09:00:21;;;;;;;11.52;6.95;;;;;;;;;;5108681;27;20096;-65
2022/01/19 09:02:48;;;;;;;10.77;6.80;;;;;;;;;;5107740;27;20046;-63
2022/01/19 09:05:14;;;;;;;14.27;7.72;;;;;;;;;;5109695;27;20035;-65
2022/01/19 09:07:40;;;;;;;14.98;7.60;;;;;;;;;;5108218;27;20035;-65
2022/01/19 09:10:07;;;;;;;13.20;7.20;;;;;;;;;;5109859;27;20031;-63
2022/01/19 09:12:34;;;;;;;12.98;6.95;;;;;;;;;;5107558;27;20758;-65
2022/01/19 09:15:00;;;;;;;12.32;6.93;;;;;;;;;;5086491;27;20056;-65
2022/01/19 09:17:26;;;;;;;12.55;7.35;;;;;;;;;;5077544;27;20677;-66
2022/01/19 09:19:52;;;;;;;11.27;6.55;;;;;;;;;;5092210;27;20193;-66
2022/01/19 09:22:18;;;;;;;10.98;6.53;;;;;;;;;;5107691;27;20053;-66
2022/01/19 09:24:44;;;;;;;14.30;6.70;;;;;;;;;;5104321;27;20085;-65
2022/01/19 09:27:11;;;;;;;11.95;7.30;;;;;;;;;;5096500;27;20035;-67
2022/01/19 09:29:40;;;;;;;12.40;7.10;;;;;;;;;;5109347;27;20039;-65
2022/01/19 09:32:08;;;;;;;14.10;7.07;;;;;;;;;;5108385;27;20067;-65
2022/01/19 09:34:34;;;;;;;17.33;6.85;;;;;;;;;;5109106;27;20047;-64
2022/01/19 09:37:00;;;;;;;16.40;7.28;;;;;;;;;;5107497;27;20035;-65
2022/01/19 09:39:27;;;;;;;12.10;6.72;;;;;;;;;;5109501;27;20045;-65
2022/01/19 09:41:54;;;;;;;11.35;6.70;;;;;;;;;;5107556;27;20031;-63
2022/01/19 09:44:22;;;;;;;13.25;7.68;;;;;;;;;;5108369;27;20067;-64
2022/01/19 09:46:48;;;;;;;13.05;7.63;;;;;;;;;;5107880;27;20043;-64
2022/01/19 09:49:17;;;;;;;11.90;6.85;;;;;;;;;;5126364;27;20050;-64
2022/01/19 09:51:44;;;;;;;11.88;6.88;;;;;;;;;;5126715;27;20043;-63
2022/01/19 09:54:13;;;;;;;12.07;6.93;;;;;;;;;;5126063;27;20034;-63
2022/01/19 09:56:39;;;;;;;13.77;6.75;;;;;;;;;;5107968;27;20039;-64
2022/01/19 09:59:06;;;;;;;12.60;7.45;;;;;;;;;;5107282;27;20039;-65
2022/01/19 10:01:32;;;;;;;11.63;7.00;;;;;;;;;;5107854;27;20126;-63
2022/01/19 10:03:58;;;;;;;11.20;6.50;;;;;;;;;;5125241;27;20438;-63
2022/01/19 10:06:24;;;;;;;12.48;7.07;;;;;;;;;;5126428;27;20043;-63
2022/01/19 10:08:55;;;;;;;10.52;6.25;;;;;;;;;;5107877;27;20047;-64
2022/01/19 10:11:27;;;;;;;10.50;6.18;;;;;;;;;;5108343;27;20549;-63
2022/01/19 10:17:06;;;;;;;16.08;7.90;;;;;;;;;;5101120;27;20047;-63
2022/01/19 10:19:33;;;;;;;14.10;8.15;;;;;;;;;;5108595;27;20039;-63
2022/01/19 10:21:59;;;;;;;14.80;7.95;;;;;;;;;;5089186;27;20123;-67
2022/01/19 10:24:52;;;;;;;16.30;7.10;;;;;;;;;;5108291;27;20123;-65
2022/01/19 10:27:18;;;;;;;16.98;8.15;;;;;;;;;;5102894;27;20545;-67
2022/01/19 10:29:44;;;;;;;13.90;7.85;;;;;;;;;;5108162;27;20115;-68
2022/01/19 10:32:10;;;;;;;17.48;7.60;;;;;;;;;;5107366;27;20039;-64
2022/01/19 10:34:36;;;;;;;14.25;7.82;;;;;;;;;;5107463;27;20088;-65
2022/01/19 10:37:05;;;;;;;13.93;7.78;;;;;;;;;;5106533;27;20467;-65
2022/01/19 10:39:41;;;;;;;12.75;7.75;;;;;;;;;;5108418;27;20046;-65
2022/01/19 10:42:18;;;;;;;14.18;7.35;;;;;;;;;;5106535;27;20031;-66
2022/01/19 10:44:51;;;;;;;11.38;7.22;;;;;;;;;;5107880;27;20043;-65
2022/01/19 10:47:18;;;;;;;12.60;7.05;;;;;;;;;;5107228;27;20357;-65
2022/01/19 10:49:47;;;;;;;12.80;6.85;;;;;;;;;;5091057;27;20412;-65
2022/01/19 10:52:31;;;;;;;11.38;5.85;;;;;;;;;;5106279;27;20778;-66
2022/01/19 10:54:58;;;;;;;9.93;5.95;;;;;;;;;;5090915;27;20425;-66
2022/01/19 10:57:25;;;;;;;12.98;5.88;;;;;;;;;;5105770;27;20674;-67
2022/01/19 10:59:51;;;;;;;12.93;6.07;;;;;;;;;;5106921;27;20043;-66
2022/01/19 11:02:19;;;;;;;14.23;6.25;;;;;;;;;;5102210;27;20623;-65
2022/01/19 11:04:45;;;;;;;11.80;6.15;;;;;;;;;;5086839;28;20052;-66
2022/01/19 11:07:11;;;;;;;10.68;6.10;;;;;;;;;;5073827;27;20046;-65
2022/01/19 11:09:46;;;;;;;16.25;6.97;;;;;;;;;;5107385;27;20126;-64
2022/01/19 11:12:16;;;;;;;13.82;6.22;;;;;;;;;;5087591;27;20043;-63
2022/01/19 11:14:42;;;;;;;13.48;6.80;;;;;;;;;;5092818;28;20047;-63
2022/01/19 11:17:09;;;;;;;14.68;7.63;;;;;;;;;;5088604;27;20121;-63
2022/01/19 11:19:39;;;;;;;17.13;7.63;;;;;;;;;;5086420;28;20051;-64
2022/01/19 11:22:24;;;;;;;15.45;7.15;;;;;;;;;;5089562;27;20063;-64
2022/01/19 11:24:49;;;;;;;12.40;6.97;;;;;;;;;;5085785;27;20051;-64
2022/01/19 11:27:16;;;;;;;13.80;7.53;;;;;;;;;;5070643;27;20121;-64
2022/01/19 11:29:42;;;;;;;12.60;7.18;;;;;;;;;;5090600;27;20046;-64
2022/01/19 11:32:17;;;;;;;14.32;7.38;;;;;;;;;;5106044;27;20047;-64
2022/01/19 11:34:47;;;;;;;11.02;7.15;;;;;;;;;;5106632;27;20043;-64
2022/01/19 11:37:14;;;;;;;14.07;8.00;;;;;;;;;;5105118;27;20697;-64
2022/01/19 11:39:59;;;;;;;13.10;7.57;;;;;;;;;;5106896;27;20039;-64
2022/01/19 11:42:25;;;;;;;10.88;6.80;;;;;;;;;;5105902;27;20040;-64
2022/01/19 11:44:52;;;;;;;13.30;7.03;;;;;;;;;;5125329;27;20046;-64
2022/01/19 11:47:18;;;;;;;12.55;6.70;;;;;;;;;;5102196;27;20031;-64
2022/01/19 11:49:44;;;;;;;13.27;7.43;;;;;;;;;;5072411;28;21818;-64
2022/01/19 11:52:10;;;;;;;12.52;6.95;;;;;;;;;;5060270;27;20617;-64
2022/01/19 11:54:36;;;;;;;13.18;8.13;;;;;;;;;;5088816;28;20043;-64
2022/01/19 11:57:02;;;;;;;14.52;7.03;;;;;;;;;;5104658;28;20041;-64
2022/01/19 11:59:55;;;;;;;11.82;6.88;;;;;;;;;;5106107;27;20043;-64
2022/01/19 12:02:22;;;;;;;13.88;8.20;;;;;;;;;;5104360;28;20035;-64
2022/01/19 12:04:50;;;;;;;13.75;7.35;;;;;;;;;;5104812;28;20039;-64
2022/01/19 12:07:35;;;;;;;12.10;7.32;;;;;;;;;;5096021;28;21095;-64
2022/01/19 12:10:01;;;;;;;11.18;7.18;;;;;;;;;;5054032;27;20283;-64
2022/01/19 12:12:32;;;;;;;13.13;8.10;;;;;;;;;;5135607;27;20556;-64
2022/01/19 12:14:58;;;;;;;12.02;7.22;;;;;;;;;;5125259;27;20797;-64
2022/01/19 12:17:51;;;;;;;13.75;7.20;;;;;;;;;;5107503;27;20103;-64
2022/01/19 12:20:43;;;;;;;12.23;7.75;;;;;;;;;;5103150;27;20057;-64
2022/01/19 12:23:23;;;;;;;13.43;7.47;;;;;;;;;;5106919;27;20578;-64
2022/01/19 12:25:53;;;;;;;11.82;7.40;;;;;;;;;;5104811;27;20051;-64
2022/01/19 12:28:38;;;;;;;14.52;7.55;;;;;;;;;;5068848;27;20050;-64
2022/01/19 12:31:22;;;;;;;15.20;7.70;;;;;;;;;;5058942;27;20086;-64
2022/01/19 12:34:04;;;;;;;13.57;7.93;;;;;;;;;;5093115;27;20027;-64
2022/01/19 12:36:44;;;;;;;13.27;8.15;;;;;;;;;;5091105;27;20061;-64
2022/01/19 12:39:25;;;;;;;12.77;7.63;;;;;;;;;;5105687;27;20039;-64
2022/01/19 12:41:58;;;;;;;13.43;8.15;;;;;;;;;;5112314;27;20048;-63
2022/01/19 12:44:45;;;;;;;12.85;7.93;;;;;;;;;;5090028;28;20042;-63
2022/01/19 12:49:53;;;;;;;15.23;9.02;;;;;;;;;;5107241;27;20092;-64
2022/01/19 12:52:19;;;;;;;12.35;7.65;;;;;;;;;;5097551;27;20413;-64
2022/01/19 12:54:46;;;;;;;13.57;8.20;;;;;;;;;;5089223;28;20043;-64
2022/01/19 12:57:15;;;;;;;13.25;7.85;;;;;;;;;;5117444;27;20122;-64
2022/01/19 12:59:42;;;;;;;13.00;8.75;;;;;;;;;;5077763;27;20039;-65
2022/01/19 13:02:08;;;;;;;12.77;7.63;;;;;;;;;;5089117;27;20050;-65
2022/01/19 13:04:36;;;;;;;15.07;7.90;;;;;;;;;;5096213;27;20419;-65
2022/01/19 13:07:16;;;;;;;13.88;7.90;;;;;;;;;;5065429;27;20039;-65
2022/01/19 13:13:04;;;;;;;12.52;7.57;;;;;;;;;;5006612;28;20142;-65
2022/01/19 13:15:47;;;;;;;13.63;7.83;;;;;;;;;;5083988;28;20122;-65
2022/01/19 13:18:15;;;;;;;13.60;8.32;;;;;;;;;;5090126;28;20304;-65
2022/01/19 13:20:49;;;;;;;13.27;7.93;;;;;;;;;;5088348;28;20048;-65
2022/01/19 13:23:15;;;;;;;14.63;8.05;;;;;;;;;;5100880;27;20543;-65
2022/01/19 13:25:41;;;;;;;13.68;7.85;;;;;;;;;;5109357;27;20606;-65
2022/01/19 13:28:07;;;;;;;13.35;8.85;;;;;;;;;;5108556;27;20043;-65
2022/01/19 13:30:34;;;;;;;13.82;8.82;;;;;;;;;;5108004;27;20078;-65
2022/01/19 13:33:09;;;;;;;13.98;8.02;;;;;;;;;;5106790;27;20050;-65
2022/01/19 13:35:35;;;;;;;13.65;7.85;;;;;;;;;;5087400;27;20039;-70
2022/01/19 13:38:09;;;;;;;13.48;8.00;;;;;;;;;;5073307;27;20040;-67
2022/01/19 13:40:35;;;;;;;13.57;8.05;;;;;;;;;;5129270;27;20153;-72
2022/01/19 13:43:02;;;;;;;13.88;8.23;;;;;;;;;;5070399;27;20047;-72
2022/01/19 13:50:42;;;;;;;11.60;7.43;;;;;;;;;;5105009;27;20035;-71
2022/01/19 13:53:08;;;;;;;12.88;7.93;;;;;;;;;;5101341;27;20119;-71
2022/01/19 13:55:35;;;;;;;13.00;7.68;;;;;;;;;;5103604;27;20603;-72
2022/01/19 13:58:05;;;;;;;14.60;8.52;;;;;;;;;;5104110;27;20047;-70
2022/01/19 14:00:31;;;;;;;12.23;7.80;;;;;;;;;;5104500;27;20623;-70
2022/01/19 14:03:01;;;;;;;12.32;8.18;;;;;;;;;;5102920;27;20043;-68
2022/01/19 14:05:35;;;;;;;15.13;8.85;;;;;;;;;;5089433;27;20071;-69
2022/01/19 14:08:01;;;;;;;15.80;7.97;;;;;;;;;;5078829;27;20392;-71
2022/01/19 14:10:37;;;;;;;14.25;7.80;;;;;;;;;;5109005;27;20399;-70
2022/01/19 14:13:20;;;;;;;14.63;8.50;;;;;;;;;;5108251;27;20074;-71
2022/01/19 14:15:46;;;;;;;13.27;7.93;;;;;;;;;;5106155;27;20050;-71
2022/01/19 14:18:12;;;;;;;11.93;7.10;;;;;;;;;;5071450;27;20047;-70
2022/01/19 14:20:38;;;;;;;14.73;8.10;;;;;;;;;;5088653;27;20035;-71
2022/01/19 14:23:13;;;;;;;14.93;8.55;;;;;;;;;;5121348;27;20055;-69
2022/01/19 14:25:39;;;;;;;13.35;7.60;;;;;;;;;;5102133;27;20583;-69
2022/01/19 14:28:15;;;;;;;14.00;8.45;;;;;;;;;;5103560;27;20041;-68
2022/01/19 14:30:42;;;;;;;12.75;7.78;;;;;;;;;;5081790;27;20047;-72
2022/01/19 14:33:15;;;;;;;12.15;7.45;;;;;;;;;;5101103;27;20047;-66
2022/01/19 14:35:41;;;;;;;14.35;7.93;;;;;;;;;;5087557;27;20143;-61
2022/01/19 14:38:22;;;;;;;14.30;8.05;;;;;;;;;;5123007;27;20070;-63
2022/01/19 14:40:51;;;;;;;13.85;7.72;;;;;;;;;;5096913;27;20063;-63
2022/01/19 14:43:19;;;;;;;11.85;7.55;;;;;;;;;;5087048;27;20054;-63
2022/01/19 14:45:55;;;;;;;16.88;8.65;;;;;;;;;;5105610;27;20039;-63
2022/01/19 14:48:25;;;;;;;13.70;7.57;;;;;;;;;;5088414;27;20039;-63
2022/01/19 14:50:51;;;;;;;13.75;7.63;;;;;;;;;;5104430;27;20070;-63
2022/01/19 14:53:17;;;;;;;12.95;8.20;;;;;;;;;;5103771;27;20050;-63
2022/01/19 14:55:44;;;;;;;13.68;8.32;;;;;;;;;;5068916;27;20046;-63
2022/01/19 14:58:10;;;;;;;13.25;7.60;;;;;;;;;;5089037;27;20050;-63
2022/01/19 15:00:37;;;;;;;13.02;7.30;;;;;;;;;;5083414;27;20733;-66
2022/01/19 15:03:04;;;;;;;11.85;7.30;;;;;;;;;;5121049;27;20058;-65
2022/01/19 15:05:31;;;;;;;13.27;8.23;;;;;;;;;;5104851;27;20057;-64
2022/01/19 15:07:58;;;;;;;13.70;7.07;;;;;;;;;;5075669;27;20047;-65
2022/01/19 15:10:25;;;;;;;12.70;7.82;;;;;;;;;;5064877;27;20047;-67
2022/01/19 15:12:53;;;;;;;14.38;7.57;;;;;;;;;;5106499;27;20564;-67
2022/01/19 15:15:21;;;;;;;12.98;7.10;;;;;;;;;;5104441;27;20122;-68
2022/01/19 15:17:48;;;;;;;12.30;7.10;;;;;;;;;;5086383;27;20087;-67
2022/01/19 15:20:14;;;;;;;16.85;7.45;;;;;;;;;;5103641;27;20070;-65
2022/01/19 15:22:40;;;;;;;13.63;6.88;;;;;;;;;;5102234;27;20090;-66
2022/01/19 15:25:06;;;;;;;10.98;5.82;;;;;;;;;;5102340;27;20051;-64
2022/01/19 15:27:32;;;;;;;10.82;6.65;;;;;;;;;;5087951;27;20478;-65
2022/01/19 15:29:58;;;;;;;11.25;6.40;;;;;;;;;;5104903;27;20561;-65
2022/01/19 15:32:24;;;;;;;12.07;6.45;;;;;;;;;;5117188;27;20034;-66
2022/01/19 15:34:50;;;;;;;9.93;6.35;;;;;;;;;;5104546;27;20483;-66
2022/01/19 15:37:16;;;;;;;10.57;6.68;;;;;;;;;;5102664;27;20631;-65
2022/01/19 15:39:46;;;;;;;11.55;6.20;;;;;;;;;;5077962;27;20046;-65
2022/01/19 15:42:14;;;;;;;10.43;6.03;;;;;;;;;;5068274;27;20104;-64
2022/01/19 15:44:41;;;;;;;12.50;6.70;;;;;;;;;;5083000;27;20049;-66
2022/01/19 15:47:07;;;;;;;11.15;5.70;;;;;;;;;;5119301;27;20508;-65
2022/01/19 15:49:33;;;;;;;10.52;5.97;;;;;;;;;;5101371;27;20044;-75
2022/01/19 15:51:59;;;;;;;10.43;5.60;;;;;;;;;;5096658;27;20119;-72
2022/01/19 15:54:25;;;;;;;10.88;5.90;;;;;;;;;;5104014;27;20088;-72
2022/01/19 15:56:51;;;;;;;9.77;5.43;;;;;;;;;;5119491;27;20067;-73
2022/01/19 15:59:18;;;;;;;10.50;5.65;;;;;;;;;;5142058;27;20046;-72
2022/01/19 16:01:45;;;;;;;9.50;5.13;;;;;;;;;;5105278;28;20053;-71
2022/01/19 16:04:11;;;;;;;11.27;5.38;;;;;;;;;;5103651;28;20051;-74